Time;durP1;ratioP1;P1;durP2;ratioP2;P2;SDS_P1;SDS_P2;PMS_P1;PMS_P2;Temp;Humidity;BMP_temperature;BMP_pressure;BME280_temperature;BME280_humidity;BME280_pressure;Samples;Min_cycle;Max_cycle;Signal;HPM_P1;HPM_P2
2021/05/28 00:01:52;;;;;;;17.37;7.63;;;;;;;;;;5031475;28;20201;-68
2021/05/28 00:04:18;;;;;;;22.93;8.73;;;;;;;;;;5036807;28;20880;-68
2021/05/28 00:06:43;;;;;;;19.90;8.40;;;;;;;;;;5029644;28;20259;-68
2021/05/28 00:09:08;;;;;;;18.13;7.77;;;;;;;;;;5045294;28;20192;-68
2021/05/28 00:11:34;;;;;;;17.30;7.80;;;;;;;;;;5040916;28;20231;-68
2021/05/28 00:14:00;;;;;;;15.97;8.00;;;;;;;;;;5036203;28;20178;-68
2021/05/28 00:16:25;;;;;;;21.07;7.87;;;;;;;;;;5039823;28;20178;-68
2021/05/28 00:18:52;;;;;;;22.70;8.50;;;;;;;;;;5036565;28;20193;-68
2021/05/28 00:21:17;;;;;;;20.50;8.37;;;;;;;;;;5039548;28;20312;-68
2021/05/28 00:23:43;;;;;;;21.93;9.17;;;;;;;;;;5039897;28;20335;-68
2021/05/28 00:26:08;;;;;;;20.17;9.67;;;;;;;;;;5037723;28;20284;-68
2021/05/28 00:28:33;;;;;;;20.20;9.10;;;;;;;;;;5027948;28;20226;-67
2021/05/28 00:30:59;;;;;;;20.40;9.57;;;;;;;;;;5040555;28;20197;-67
2021/05/28 00:33:24;;;;;;;22.33;9.30;;;;;;;;;;5034122;28;20618;-68
2021/05/28 00:35:49;;;;;;;19.67;9.67;;;;;;;;;;5039943;28;20732;-68
2021/05/28 00:38:15;;;;;;;21.40;9.40;;;;;;;;;;5034261;28;20190;-67
2021/05/28 00:40:40;;;;;;;21.97;9.10;;;;;;;;;;5045356;28;20212;-68
2021/05/28 00:43:05;;;;;;;22.20;9.63;;;;;;;;;;5035701;28;20186;-67
2021/05/28 00:45:31;;;;;;;24.83;10.20;;;;;;;;;;5034649;28;20224;-68
2021/05/28 00:47:56;;;;;;;27.50;11.37;;;;;;;;;;5040412;28;20612;-68
2021/05/28 00:50:21;;;;;;;23.87;11.17;;;;;;;;;;5034230;28;20286;-67
2021/05/28 00:52:52;;;;;;;25.93;11.40;;;;;;;;;;5037232;28;20625;-68
2021/05/28 00:55:17;;;;;;;22.40;11.30;;;;;;;;;;5035900;28;20594;-68
2021/05/28 00:57:43;;;;;;;19.50;11.20;;;;;;;;;;5034753;28;20549;-68
2021/05/28 01:00:09;;;;;;;23.93;11.57;;;;;;;;;;5033094;28;20189;-68
2021/05/28 01:02:35;;;;;;;22.33;11.83;;;;;;;;;;5034953;28;20213;-68
2021/05/28 01:05:00;;;;;;;26.20;12.73;;;;;;;;;;5034708;28;20216;-68
2021/05/28 01:07:26;;;;;;;25.27;11.57;;;;;;;;;;5042336;28;20198;-68
2021/05/28 01:09:51;;;;;;;26.83;12.33;;;;;;;;;;5034936;28;20202;-68
2021/05/28 01:12:16;;;;;;;28.90;12.33;;;;;;;;;;5041891;28;20192;-68
2021/05/28 01:14:43;;;;;;;26.37;12.80;;;;;;;;;;5045410;28;20633;-68
2021/05/28 01:17:09;;;;;;;27.93;13.47;;;;;;;;;;5030316;28;20194;-68
2021/05/28 01:19:34;;;;;;;25.37;13.80;;;;;;;;;;5043572;28;20336;-68
2021/05/28 01:22:04;;;;;;;26.07;14.10;;;;;;;;;;5030347;28;20762;-68
2021/05/28 01:24:30;;;;;;;30.90;15.23;;;;;;;;;;5044122;28;20244;-68
2021/05/28 01:26:55;;;;;;;25.10;15.87;;;;;;;;;;5031274;28;20224;-68
2021/05/28 01:29:21;;;;;;;24.10;15.40;;;;;;;;;;5040970;28;20240;-68
2021/05/28 01:31:46;;;;;;;26.90;14.77;;;;;;;;;;5031339;28;20224;-68
2021/05/28 01:34:12;;;;;;;34.57;15.33;;;;;;;;;;5031688;28;20189;-68
2021/05/28 01:36:37;;;;;;;36.17;15.97;;;;;;;;;;5031320;28;20181;-68
2021/05/28 01:39:03;;;;;;;32.17;16.50;;;;;;;;;;5037692;28;20224;-68
2021/05/28 01:41:30;;;;;;;33.40;16.30;;;;;;;;;;5031831;28;20224;-68
2021/05/28 01:43:55;;;;;;;33.03;16.17;;;;;;;;;;5033179;28;20205;-68
2021/05/28 01:46:21;;;;;;;34.47;16.45;;;;;;;;;;5043879;28;20288;-68
2021/05/28 01:48:46;;;;;;;30.30;16.43;;;;;;;;;;5041760;28;20182;-68
2021/05/28 01:51:12;;;;;;;30.73;17.05;;;;;;;;;;5043554;28;20225;-68
2021/05/28 01:53:37;;;;;;;34.57;17.40;;;;;;;;;;5044658;28;20189;-68
2021/05/28 01:56:03;;;;;;;34.80;17.05;;;;;;;;;;5045195;28;20181;-68
2021/05/28 01:58:28;;;;;;;34.10;17.20;;;;;;;;;;5042926;28;20193;-67
2021/05/28 02:00:56;;;;;;;33.10;16.55;;;;;;;;;;5045504;28;20214;-67
2021/05/28 02:03:23;;;;;;;36.03;17.50;;;;;;;;;;5038615;28;20276;-67
2021/05/28 02:05:48;;;;;;;33.28;16.67;;;;;;;;;;5041933;28;20297;-68
2021/05/28 02:08:14;;;;;;;34.43;16.73;;;;;;;;;;5042528;28;20279;-68
2021/05/28 02:10:40;;;;;;;31.95;17.60;;;;;;;;;;5044245;28;20185;-68
2021/05/28 02:13:06;;;;;;;30.93;17.53;;;;;;;;;;5035817;28;20181;-68
2021/05/28 02:15:31;;;;;;;33.53;17.83;;;;;;;;;;5040804;28;20272;-68
2021/05/28 02:17:57;;;;;;;31.20;17.45;;;;;;;;;;5044112;28;20186;-68
2021/05/28 02:20:23;;;;;;;38.38;18.27;;;;;;;;;;5037272;28;20197;-68
2021/05/28 02:22:49;;;;;;;34.30;17.73;;;;;;;;;;5039249;28;20216;-68
2021/05/28 02:25:14;;;;;;;32.50;18.52;;;;;;;;;;5029144;28;20213;-69
2021/05/28 02:27:40;;;;;;;34.83;17.73;;;;;;;;;;5036748;28;20190;-69
2021/05/28 02:30:07;;;;;;;31.17;18.07;;;;;;;;;;5040724;28;20260;-68
2021/05/28 02:32:33;;;;;;;34.80;17.58;;;;;;;;;;5042304;28;20185;-68
2021/05/28 02:34:59;;;;;;;36.90;18.88;;;;;;;;;;5038694;28;20652;-68
2021/05/28 02:37:24;;;;;;;36.28;18.33;;;;;;;;;;5038694;28;20203;-68
2021/05/28 02:39:50;;;;;;;31.77;18.40;;;;;;;;;;5034097;28;20683;-68
2021/05/28 02:42:15;;;;;;;36.33;18.10;;;;;;;;;;5044757;28;20249;-68
2021/05/28 02:44:40;;;;;;;33.63;17.80;;;;;;;;;;5034754;28;20240;-67
2021/05/28 02:47:06;;;;;;;44.67;17.43;;;;;;;;;;5041729;28;20179;-67
2021/05/28 02:49:32;;;;;;;31.83;17.53;;;;;;;;;;5046848;28;20189;-67
2021/05/28 02:51:58;;;;;;;36.57;18.80;;;;;;;;;;5028937;28;20291;-68
2021/05/28 02:54:25;;;;;;;41.43;19.10;;;;;;;;;;5045369;28;20190;-68
2021/05/28 02:56:50;;;;;;;36.93;19.57;;;;;;;;;;5033960;28;20213;-68
2021/05/28 02:59:15;;;;;;;38.30;20.60;;;;;;;;;;5046611;28;20197;-67
2021/05/28 03:01:41;;;;;;;39.40;19.83;;;;;;;;;;5033804;28;20626;-67
2021/05/28 03:04:06;;;;;;;42.93;21.10;;;;;;;;;;5044228;28;20717;-68
2021/05/28 03:06:31;;;;;;;41.53;19.90;;;;;;;;;;5030952;28;20332;-67
2021/05/28 03:08:58;;;;;;;41.67;20.50;;;;;;;;;;5046578;28;20192;-68
2021/05/28 03:11:23;;;;;;;38.07;21.00;;;;;;;;;;5034053;28;20242;-68
2021/05/28 03:13:49;;;;;;;38.00;21.47;;;;;;;;;;5039424;28;20281;-67
2021/05/28 03:16:14;;;;;;;34.27;20.23;;;;;;;;;;5032797;28;20251;-68
2021/05/28 03:18:52;;;;;;;33.70;19.00;;;;;;;;;;5045525;28;20196;-68
2021/05/28 03:23:56;;;;;;;33.70;19.20;;;;;;;;;;5046046;28;20221;-68
2021/05/28 03:26:22;;;;;;;37.97;19.50;;;;;;;;;;5041169;28;20188;-68
2021/05/28 03:28:48;;;;;;;31.67;19.63;;;;;;;;;;5034416;28;20213;-68
2021/05/28 03:31:14;;;;;;;36.03;19.83;;;;;;;;;;5040802;28;20210;-68
2021/05/28 03:33:40;;;;;;;44.97;19.30;;;;;;;;;;5030711;28;20617;-69
2021/05/28 03:36:06;;;;;;;35.73;20.07;;;;;;;;;;5038609;28;20194;-68
2021/05/28 03:38:32;;;;;;;29.90;18.37;;;;;;;;;;5033785;28;20272;-67
2021/05/28 03:40:57;;;;;;;36.67;19.50;;;;;;;;;;5038730;28;20264;-67
2021/05/28 03:43:23;;;;;;;36.70;19.57;;;;;;;;;;5035913;28;20230;-68
2021/05/28 03:45:48;;;;;;;37.73;19.57;;;;;;;;;;5038237;28;20213;-68
2021/05/28 03:48:13;;;;;;;36.80;18.97;;;;;;;;;;5033252;28;20189;-68
2021/05/28 03:50:39;;;;;;;57.87;18.87;;;;;;;;;;5038757;28;20233;-67
2021/05/28 03:53:04;;;;;;;46.77;19.47;;;;;;;;;;5034644;28;20634;-67
2021/05/28 03:55:29;;;;;;;41.10;19.47;;;;;;;;;;5038287;28;20481;-68
2021/05/28 03:57:55;;;;;;;44.97;18.93;;;;;;;;;;5043166;28;21011;-68
2021/05/28 04:00:20;;;;;;;35.63;19.70;;;;;;;;;;5027084;28;20284;-68
2021/05/28 04:02:46;;;;;;;55.10;20.10;;;;;;;;;;5037110;28;20210;-68
2021/05/28 04:05:12;;;;;;;42.03;20.73;;;;;;;;;;5025907;28;20217;-68
2021/05/28 04:07:38;;;;;;;41.20;20.23;;;;;;;;;;5041665;28;20188;-68
2021/05/28 04:10:04;;;;;;;53.83;18.75;;;;;;;;;;5030258;28;20197;-69
2021/05/28 04:12:29;;;;;;;65.47;19.38;;;;;;;;;;5034955;28;20196;-68
2021/05/28 04:14:54;;;;;;;35.25;18.20;;;;;;;;;;5031270;28;20194;-68
2021/05/28 04:17:20;;;;;;;38.97;18.85;;;;;;;;;;5039238;28;20187;-69
2021/05/28 04:19:45;;;;;;;37.20;18.98;;;;;;;;;;5031865;28;20193;-69
2021/05/28 04:22:11;;;;;;;28.33;18.55;;;;;;;;;;5036276;28;20190;-68
2021/05/28 04:24:36;;;;;;;40.38;19.13;;;;;;;;;;5034825;28;20198;-69
2021/05/28 04:27:02;;;;;;;46.15;20.23;;;;;;;;;;5032491;28;20205;-69
2021/05/28 04:29:27;;;;;;;36.25;20.40;;;;;;;;;;5039594;28;20185;-68
2021/05/28 04:31:52;;;;;;;37.75;19.85;;;;;;;;;;5027828;28;20186;-68
2021/05/28 04:34:18;;;;;;;35.40;18.65;;;;;;;;;;5034657;28;20255;-68
2021/05/28 04:36:43;;;;;;;31.47;18.77;;;;;;;;;;5035456;28;20186;-68
2021/05/28 04:39:08;;;;;;;40.92;18.58;;;;;;;;;;5039471;28;20669;-68
2021/05/28 04:41:34;;;;;;;35.57;17.97;;;;;;;;;;5031128;28;20196;-69
2021/05/28 04:43:59;;;;;;;35.33;16.67;;;;;;;;;;5039549;28;20300;-68
2021/05/28 04:46:24;;;;;;;32.63;16.70;;;;;;;;;;5027713;28;20190;-69
2021/05/28 04:48:50;;;;;;;37.73;17.10;;;;;;;;;;5037670;28;20194;-68
2021/05/28 04:51:16;;;;;;;28.73;16.52;;;;;;;;;;5028544;28;22230;-68
2021/05/28 04:53:42;;;;;;;21.40;14.90;;;;;;;;;;5036194;28;20267;-68
2021/05/28 04:56:07;;;;;;;26.57;16.07;;;;;;;;;;5035621;28;20194;-68
2021/05/28 04:58:32;;;;;;;25.30;15.90;;;;;;;;;;5034723;28;20554;-67
2021/05/28 05:00:58;;;;;;;28.17;16.50;;;;;;;;;;5036455;28;20565;-68
2021/05/28 05:03:23;;;;;;;28.48;17.02;;;;;;;;;;5033161;28;20732;-68
2021/05/28 05:05:48;;;;;;;26.63;16.45;;;;;;;;;;5038348;28;20769;-68
2021/05/28 05:08:14;;;;;;;30.73;15.85;;;;;;;;;;5026115;28;20217;-69
2021/05/28 05:10:39;;;;;;;25.48;15.73;;;;;;;;;;5039516;28;20265;-69
2021/05/28 05:13:12;;;;;;;28.05;15.68;;;;;;;;;;5032944;28;20258;-69
2021/05/28 05:15:38;;;;;;;24.92;15.52;;;;;;;;;;5040329;28;20610;-69
2021/05/28 05:18:05;;;;;;;25.33;15.32;;;;;;;;;;5029484;28;20276;-69
2021/05/28 05:20:30;;;;;;;24.30;15.45;;;;;;;;;;5042941;28;20201;-69
2021/05/28 05:22:55;;;;;;;26.08;14.65;;;;;;;;;;5035691;28;22597;-69
2021/05/28 05:25:21;;;;;;;19.25;14.00;;;;;;;;;;5036173;28;20214;-69
2021/05/28 05:27:46;;;;;;;23.02;14.13;;;;;;;;;;5032562;28;20197;-69
2021/05/28 05:30:12;;;;;;;25.23;14.57;;;;;;;;;;5026182;28;20193;-69
2021/05/28 05:32:38;;;;;;;21.52;13.45;;;;;;;;;;5040070;28;20629;-69
2021/05/28 05:35:04;;;;;;;18.85;12.60;;;;;;;;;;5035270;28;20185;-69
2021/05/28 05:37:29;;;;;;;20.00;12.38;;;;;;;;;;5037799;28;20193;-68
2021/05/28 05:39:54;;;;;;;20.42;13.32;;;;;;;;;;5036047;28;20193;-69
2021/05/28 05:42:20;;;;;;;19.38;11.52;;;;;;;;;;5040292;28;20606;-67
2021/05/28 05:44:45;;;;;;;18.33;12.80;;;;;;;;;;5036141;28;20205;-69
2021/05/28 05:47:10;;;;;;;19.40;12.25;;;;;;;;;;5033483;28;20190;-69
2021/05/28 05:49:36;;;;;;;18.50;12.13;;;;;;;;;;5034349;28;20217;-69
2021/05/28 05:52:03;;;;;;;15.18;11.07;;;;;;;;;;5048268;28;20736;-70
2021/05/28 05:54:28;;;;;;;15.88;10.80;;;;;;;;;;5034269;28;20268;-70
2021/05/28 05:56:53;;;;;;;17.30;11.10;;;;;;;;;;5047135;28;20276;-69
2021/05/28 05:59:19;;;;;;;14.80;10.32;;;;;;;;;;4343782;28;10000826;-69
2021/05/28 06:01:44;;;;;;;16.23;11.48;;;;;;;;;;5029995;28;20201;-69
2021/05/28 06:04:10;;;;;;;18.48;11.23;;;;;;;;;;5031484;28;20209;-69
2021/05/28 06:06:35;;;;;;;19.25;12.15;;;;;;;;;;5028840;28;20241;-69
2021/05/28 06:09:00;;;;;;;18.63;11.68;;;;;;;;;;5033412;28;20280;-69
2021/05/28 06:11:26;;;;;;;17.60;11.65;;;;;;;;;;5036891;28;20274;-70
2021/05/28 06:13:51;;;;;;;21.17;12.70;;;;;;;;;;5042468;28;20523;-69
2021/05/28 06:16:16;;;;;;;17.92;11.43;;;;;;;;;;5024773;28;20185;-69
2021/05/28 06:18:42;;;;;;;16.52;11.65;;;;;;;;;;5039544;28;20186;-69
2021/05/28 06:21:07;;;;;;;18.35;12.13;;;;;;;;;;5030637;28;20695;-69
2021/05/28 06:23:33;;;;;;;18.23;11.68;;;;;;;;;;5043905;28;20732;-69
2021/05/28 06:25:59;;;;;;;22.63;12.18;;;;;;;;;;5033954;28;20697;-69
2021/05/28 06:28:24;;;;;;;17.13;11.65;;;;;;;;;;5042449;28;20190;-70
2021/05/28 06:30:49;;;;;;;16.42;10.95;;;;;;;;;;5040567;28;20199;-70
2021/05/28 06:33:15;;;;;;;16.27;11.30;;;;;;;;;;5034724;28;20217;-70
2021/05/28 06:35:41;;;;;;;17.65;11.40;;;;;;;;;;5036708;28;20575;-69
2021/05/28 06:38:08;;;;;;;15.98;10.95;;;;;;;;;;5026993;28;20251;-69
2021/05/28 06:40:34;;;;;;;16.23;10.38;;;;;;;;;;5042619;28;20649;-69
2021/05/28 06:42:59;;;;;;;16.90;11.27;;;;;;;;;;5029743;28;20194;-69
2021/05/28 06:45:25;;;;;;;17.70;11.63;;;;;;;;;;5037068;28;20258;-69
2021/05/28 06:47:50;;;;;;;17.92;12.02;;;;;;;;;;5029802;28;20907;-69
2021/05/28 06:50:16;;;;;;;18.98;11.60;;;;;;;;;;5034196;28;20257;-69
2021/05/28 06:52:43;;;;;;;18.55;11.10;;;;;;;;;;5031720;28;20190;-69
2021/05/28 06:55:09;;;;;;;15.38;11.45;;;;;;;;;;5041259;28;20513;-69
2021/05/28 06:57:35;;;;;;;17.65;11.65;;;;;;;;;;5036755;28;21533;-69
2021/05/28 07:00:03;;;;;;;15.35;10.80;;;;;;;;;;5039545;28;20220;-69
2021/05/28 07:02:29;;;;;;;13.65;9.55;;;;;;;;;;5040951;28;20221;-69
2021/05/28 07:04:54;;;;;;;12.60;9.77;;;;;;;;;;5034566;28;20201;-69
2021/05/28 07:07:19;;;;;;;15.40;10.02;;;;;;;;;;5041639;28;20193;-69
2021/05/28 07:09:45;;;;;;;11.90;8.77;;;;;;;;;;5030960;28;20205;-69
2021/05/28 07:12:11;;;;;;;14.70;9.00;;;;;;;;;;5037433;28;20297;-69
2021/05/28 07:14:39;;;;;;;15.52;9.48;;;;;;;;;;5033402;28;20681;-69
2021/05/28 07:17:05;;;;;;;12.98;8.65;;;;;;;;;;5039546;28;20218;-69
2021/05/28 07:19:30;;;;;;;13.80;8.50;;;;;;;;;;5028969;28;20209;-69
2021/05/28 07:21:56;;;;;;;11.20;8.00;;;;;;;;;;5039026;28;20183;-69
2021/05/28 07:24:21;;;;;;;12.13;8.25;;;;;;;;;;5033227;28;20210;-69
2021/05/28 07:26:46;;;;;;;12.35;8.27;;;;;;;;;;5041056;28;20664;-69
2021/05/28 07:29:12;;;;;;;10.40;7.55;;;;;;;;;;5030802;28;20190;-70
2021/05/28 07:31:37;;;;;;;10.32;7.50;;;;;;;;;;5037663;28;20182;-69
2021/05/28 07:34:03;;;;;;;10.77;7.57;;;;;;;;;;5038342;28;20667;-69
2021/05/28 07:36:28;;;;;;;11.93;8.68;;;;;;;;;;5038787;28;20229;-70
2021/05/28 07:38:54;;;;;;;14.77;8.20;;;;;;;;;;5038286;28;20192;-69
2021/05/28 07:41:19;;;;;;;11.55;7.68;;;;;;;;;;5028835;28;20818;-70
2021/05/28 07:43:45;;;;;;;10.10;7.65;;;;;;;;;;5036850;28;20185;-67
2021/05/28 07:46:10;;;;;;;12.20;7.63;;;;;;;;;;5033639;28;20185;-69
2021/05/28 07:48:36;;;;;;;11.68;7.75;;;;;;;;;;5042768;28;20243;-69
2021/05/28 07:51:02;;;;;;;14.75;7.43;;;;;;;;;;5031005;28;20236;-71
2021/05/28 07:53:28;;;;;;;12.70;8.05;;;;;;;;;;5036636;28;20190;-67
2021/05/28 07:55:56;;;;;;;11.57;7.15;;;;;;;;;;5028457;28;20182;-68
2021/05/28 07:58:21;;;;;;;8.25;6.60;;;;;;;;;;5036780;28;20224;-67
2021/05/28 08:00:47;;;;;;;10.40;7.13;;;;;;;;;;5033819;28;20909;-68
2021/05/28 08:03:12;;;;;;;11.38;7.07;;;;;;;;;;5037503;28;20264;-67
2021/05/28 08:05:37;;;;;;;10.80;7.10;;;;;;;;;;5033417;28;20319;-68
2021/05/28 08:08:03;;;;;;;11.02;6.88;;;;;;;;;;5034672;28;20186;-67
2021/05/28 08:10:29;;;;;;;10.90;7.57;;;;;;;;;;5041770;28;20196;-67
2021/05/28 08:12:55;;;;;;;12.82;7.82;;;;;;;;;;5029824;28;20471;-68
2021/05/28 08:15:21;;;;;;;8.82;7.55;;;;;;;;;;5032624;28;20190;-70
2021/05/28 08:17:47;;;;;;;12.77;8.02;;;;;;;;;;5030203;28;20187;-69
2021/05/28 08:20:14;;;;;;;10.85;7.43;;;;;;;;;;5037823;28;20193;-67
2021/05/28 08:22:40;;;;;;;12.30;7.05;;;;;;;;;;5036311;28;20646;-68
2021/05/28 08:25:05;;;;;;;11.57;8.20;;;;;;;;;;5040369;28;20216;-68
2021/05/28 08:27:31;;;;;;;10.05;7.82;;;;;;;;;;5033674;28;20327;-68
2021/05/28 08:29:56;;;;;;;9.20;7.25;;;;;;;;;;5031360;28;20621;-67
2021/05/28 08:32:21;;;;;;;10.60;7.50;;;;;;;;;;5029258;28;20699;-67
2021/05/28 08:34:47;;;;;;;9.77;7.53;;;;;;;;;;5039485;28;20189;-69
2021/05/28 08:37:12;;;;;;;11.40;7.30;;;;;;;;;;5037358;28;20652;-69
2021/05/28 08:39:38;;;;;;;9.85;7.60;;;;;;;;;;5032999;28;20217;-69
2021/05/28 08:42:04;;;;;;;11.05;7.40;;;;;;;;;;5042968;28;20248;-69
2021/05/28 08:44:31;;;;;;;9.70;6.13;;;;;;;;;;5030989;28;20213;-69
2021/05/28 08:46:57;;;;;;;9.85;6.38;;;;;;;;;;5044818;28;20211;-69
2021/05/28 08:49:22;;;;;;;7.55;6.63;;;;;;;;;;5034079;28;20233;-69
2021/05/28 08:51:48;;;;;;;10.88;6.97;;;;;;;;;;5044813;28;20221;-69
2021/05/28 08:54:13;;;;;;;9.40;6.28;;;;;;;;;;5030638;28;20182;-69
2021/05/28 08:56:39;;;;;;;10.45;6.38;;;;;;;;;;5039411;28;20188;-69
2021/05/28 08:59:05;;;;;;;10.02;7.03;;;;;;;;;;5036986;28;20181;-69
2021/05/28 09:01:32;;;;;;;9.13;6.50;;;;;;;;;;5042967;28;20286;-69
2021/05/28 09:03:59;;;;;;;12.25;6.82;;;;;;;;;;5033590;28;20184;-69
2021/05/28 09:06:25;;;;;;;9.15;6.18;;;;;;;;;;5035679;28;20543;-69
2021/05/28 09:08:50;;;;;;;14.00;6.28;;;;;;;;;;5038086;28;20182;-69
2021/05/28 09:11:18;;;;;;;8.98;6.70;;;;;;;;;;5033077;28;20204;-69
2021/05/28 09:13:46;;;;;;;12.77;7.93;;;;;;;;;;5042259;28;20186;-69
2021/05/28 09:16:14;;;;;;;9.65;7.05;;;;;;;;;;5033827;28;20528;-69
2021/05/28 09:18:44;;;;;;;10.95;7.10;;;;;;;;;;5036173;28;20200;-68
2021/05/28 09:21:12;;;;;;;12.48;7.40;;;;;;;;;;5028714;28;20252;-69
2021/05/28 09:23:37;;;;;;;13.05;7.88;;;;;;;;;;5041817;28;20187;-69
2021/05/28 09:26:08;;;;;;;10.77;7.05;;;;;;;;;;5034562;28;20205;-69
2021/05/28 09:28:42;;;;;;;14.23;7.60;;;;;;;;;;5037537;28;20192;-69
2021/05/28 09:31:11;;;;;;;10.38;7.85;;;;;;;;;;5029500;28;20564;-69
2021/05/28 09:33:39;;;;;;;8.85;6.45;;;;;;;;;;5034718;28;20677;-69
2021/05/28 09:36:11;;;;;;;8.65;6.43;;;;;;;;;;5024483;28;20190;-69
2021/05/28 09:38:37;;;;;;;10.32;6.65;;;;;;;;;;5034658;28;20277;-69
2021/05/28 09:41:05;;;;;;;7.95;6.30;;;;;;;;;;5025704;28;20222;-69
2021/05/28 09:43:31;;;;;;;11.75;6.70;;;;;;;;;;5034729;28;20231;-69
2021/05/28 09:45:57;;;;;;;10.25;7.40;;;;;;;;;;5025243;28;20268;-67
2021/05/28 09:48:30;;;;;;;11.40;7.53;;;;;;;;;;5030161;28;20185;-66
2021/05/28 09:50:57;;;;;;;9.15;7.57;;;;;;;;;;5037481;28;20261;-70
2021/05/28 09:53:28;;;;;;;10.02;7.20;;;;;;;;;;5026591;28;20275;-67
2021/05/28 09:55:54;;;;;;;9.32;6.43;;;;;;;;;;5033799;28;20264;-67
2021/05/28 09:58:19;;;;;;;9.18;6.65;;;;;;;;;;5031391;28;20284;-66
2021/05/28 10:00:45;;;;;;;9.75;6.85;;;;;;;;;;5031482;28;20736;-66
2021/05/28 10:03:27;;;;;;;10.50;7.10;;;;;;;;;;5025876;28;20193;-67
2021/05/28 10:05:58;;;;;;;8.13;6.90;;;;;;;;;;5035517;28;20213;-67
2021/05/28 10:08:26;;;;;;;10.45;6.25;;;;;;;;;;5032814;28;20186;-66
2021/05/28 10:10:52;;;;;;;11.45;6.55;;;;;;;;;;5039838;28;20229;-66
2021/05/28 10:13:20;;;;;;;10.68;6.80;;;;;;;;;;5032313;28;20685;-67
2021/05/28 10:15:50;;;;;;;13.18;7.15;;;;;;;;;;5042669;28;20213;-67
2021/05/28 10:18:17;;;;;;;11.48;6.70;;;;;;;;;;5029777;28;20217;-66
2021/05/28 10:20:47;;;;;;;7.85;6.22;;;;;;;;;;5044435;28;20201;-66
2021/05/28 10:23:13;;;;;;;8.95;6.78;;;;;;;;;;5039199;28;20213;-67
2021/05/28 10:25:39;;;;;;;9.65;6.93;;;;;;;;;;5044985;28;20284;-68
2021/05/28 10:28:07;;;;;;;11.27;7.65;;;;;;;;;;5031997;28;20654;-67
2021/05/28 10:30:39;;;;;;;13.95;7.35;;;;;;;;;;5043798;28;20185;-67
2021/05/28 10:33:25;;;;;;;10.27;7.53;;;;;;;;;;5039449;28;20194;-66
2021/05/28 10:36:05;;;;;;;9.02;6.47;;;;;;;;;;5038621;28;20181;-66
2021/05/28 10:38:31;;;;;;;9.23;6.18;;;;;;;;;;5034944;28;20182;-68
2021/05/28 10:40:59;;;;;;;11.35;7.32;;;;;;;;;;5042144;28;20189;-67
2021/05/28 10:43:26;;;;;;;9.60;6.97;;;;;;;;;;5039741;28;20185;-67
2021/05/28 10:46:04;;;;;;;14.18;6.82;;;;;;;;;;5035901;28;20217;-67
2021/05/28 10:48:39;;;;;;;8.85;6.47;;;;;;;;;;5044090;28;20174;-67
2021/05/28 10:51:27;;;;;;;8.35;6.30;;;;;;;;;;5034521;28;20233;-68
2021/05/28 10:53:53;;;;;;;12.65;6.65;;;;;;;;;;5044109;28;20188;-67
2021/05/28 10:56:21;;;;;;;7.45;6.05;;;;;;;;;;5034884;28;20181;-68
2021/05/28 10:58:55;;;;;;;8.40;6.20;;;;;;;;;;5040955;28;20311;-68
2021/05/28 11:01:35;;;;;;;9.50;6.45;;;;;;;;;;5031491;28;20245;-68
2021/05/28 11:04:03;;;;;;;8.68;6.20;;;;;;;;;;5039686;28;20529;-67
2021/05/28 11:06:29;;;;;;;7.63;6.00;;;;;;;;;;5032131;28;20196;-67
2021/05/28 11:09:08;;;;;;;10.52;6.25;;;;;;;;;;5034588;28;20178;-67
2021/05/28 11:11:36;;;;;;;9.38;5.68;;;;;;;;;;5031008;28;20652;-68
2021/05/28 11:14:09;;;;;;;9.13;6.10;;;;;;;;;;5034472;28;20704;-68
2021/05/28 11:16:53;;;;;;;7.07;4.93;;;;;;;;;;5031051;28;20194;-66
2021/05/28 11:19:26;;;;;;;7.97;4.93;;;;;;;;;;5044676;28;20852;-68
2021/05/28 11:21:59;;;;;;;8.95;5.50;;;;;;;;;;5035765;28;20224;-69
2021/05/28 11:24:41;;;;;;;6.60;5.13;;;;;;;;;;5037431;28;20202;-68
2021/05/28 11:27:39;;;;;;;5.93;5.22;;;;;;;;;;5027210;28;20192;-67
2021/05/28 11:30:04;;;;;;;7.43;5.20;;;;;;;;;;5031182;28;20538;-68
2021/05/28 11:32:33;;;;;;;9.25;5.18;;;;;;;;;;5030127;28;20198;-68
2021/05/28 11:35:31;;;;;;;7.07;4.60;;;;;;;;;;5039889;28;20260;-68
2021/05/28 11:38:05;;;;;;;7.95;3.90;;;;;;;;;;5029838;28;20197;-68
2021/05/28 11:40:33;;;;;;;5.75;4.15;;;;;;;;;;5037016;28;20704;-68
2021/05/28 11:43:16;;;;;;;5.03;4.30;;;;;;;;;;5029704;28;20333;-68
2021/05/28 11:45:45;;;;;;;5.35;4.07;;;;;;;;;;5041283;28;20218;-67
2021/05/28 11:48:16;;;;;;;5.03;3.75;;;;;;;;;;5032171;28;20232;-68
2021/05/28 11:50:50;;;;;;;3.40;3.05;;;;;;;;;;5041586;28;20232;-66
2021/05/28 11:53:16;;;;;;;3.47;2.72;;;;;;;;;;5031235;28;20189;-67
2021/05/28 11:55:53;;;;;;;4.88;2.28;;;;;;;;;;5041844;28;20182;-68
2021/05/28 11:58:21;;;;;;;3.28;2.38;;;;;;;;;;5028477;28;20590;-68
2021/05/28 12:00:48;;;;;;;3.83;2.30;;;;;;;;;;5040562;28;20282;-67
2021/05/28 12:03:14;;;;;;;3.65;2.50;;;;;;;;;;5034706;28;20466;-68
2021/05/28 12:05:41;;;;;;;3.00;2.67;;;;;;;;;;5043009;28;20221;-68
2021/05/28 12:08:24;;;;;;;2.28;2.00;;;;;;;;;;5029731;28;20181;-68
2021/05/28 12:10:58;;;;;;;1.88;1.70;;;;;;;;;;5033478;28;20200;-68
2021/05/28 12:13:24;;;;;;;3.55;2.75;;;;;;;;;;5027590;28;20559;-66
2021/05/28 12:15:50;;;;;;;3.42;2.47;;;;;;;;;;5040065;28;20530;-68
2021/05/28 12:18:19;;;;;;;4.97;2.70;;;;;;;;;;5034684;28;20183;-68
2021/05/28 12:21:01;;;;;;;3.88;2.60;;;;;;;;;;5035762;28;20280;-68
2021/05/28 12:23:31;;;;;;;5.55;3.70;;;;;;;;;;5041314;28;20629;-67
2021/05/28 12:25:58;;;;;;;3.72;2.55;;;;;;;;;;5035086;28;21983;-67
2021/05/28 12:28:33;;;;;;;3.72;2.30;;;;;;;;;;5038103;28;20177;-68
2021/05/28 12:31:13;;;;;;;3.70;2.40;;;;;;;;;;5030651;28;20178;-69
2021/05/28 12:33:45;;;;;;;2.97;2.53;;;;;;;;;;5039206;28;20255;-68
2021/05/28 12:36:13;;;;;;;4.18;2.33;;;;;;;;;;5023679;28;20686;-69
2021/05/28 12:38:41;;;;;;;6.05;2.47;;;;;;;;;;5040721;28;20719;-69
2021/05/28 12:41:09;;;;;;;3.50;2.42;;;;;;;;;;5033868;28;20208;-68
2021/05/28 12:43:40;;;;;;;3.13;2.80;;;;;;;;;;4345091;28;10000694;-68
2021/05/28 12:46:20;;;;;;;4.05;2.70;;;;;;;;;;5026362;28;21020;-68
2021/05/28 12:48:49;;;;;;;2.55;2.10;;;;;;;;;;5032690;28;20178;-69
2021/05/28 12:51:17;;;;;;;2.67;2.30;;;;;;;;;;5026211;28;20230;-66
2021/05/28 12:53:44;;;;;;;5.57;2.85;;;;;;;;;;5031188;28;20193;-67
2021/05/28 12:56:18;;;;;;;3.35;2.00;;;;;;;;;;5023626;28;20309;-67
2021/05/28 12:58:43;;;;;;;5.75;1.98;;;;;;;;;;5034570;28;20214;-67
2021/05/28 13:01:14;;;;;;;3.05;1.88;;;;;;;;;;5027542;28;20255;-67
2021/05/28 13:03:51;;;;;;;4.22;1.77;;;;;;;;;;5033730;28;20186;-67
2021/05/28 13:06:27;;;;;;;3.33;1.80;;;;;;;;;;5024822;28;21577;-66
2021/05/28 13:08:54;;;;;;;2.97;1.80;;;;;;;;;;5037108;28;20667;-67
2021/05/28 13:11:20;;;;;;;2.22;1.75;;;;;;;;;;5022385;28;20193;-68
2021/05/28 13:13:51;;;;;;;2.60;1.70;;;;;;;;;;5034660;28;20604;-68
2021/05/28 13:16:25;;;;;;;3.42;2.20;;;;;;;;;;5030083;28;20186;-67
2021/05/28 13:18:51;;;;;;;3.35;2.53;;;;;;;;;;5028136;28;20209;-67
2021/05/28 13:21:30;;;;;;;3.45;2.38;;;;;;;;;;5036974;28;20257;-70
2021/05/28 13:23:55;;;;;;;3.67;2.55;;;;;;;;;;5026306;28;20189;-68
2021/05/28 13:26:23;;;;;;;3.92;2.40;;;;;;;;;;5039713;28;20252;-68
2021/05/28 13:28:49;;;;;;;3.72;3.00;;;;;;;;;;5027354;28;20201;-69
2021/05/28 13:31:17;;;;;;;5.45;2.95;;;;;;;;;;5036591;28;20197;-68
2021/05/28 13:33:44;;;;;;;4.45;2.42;;;;;;;;;;5033080;28;20198;-68
2021/05/28 13:36:15;;;;;;;8.13;3.28;;;;;;;;;;5037723;28;20921;-67
2021/05/28 13:38:44;;;;;;;2.50;1.88;;;;;;;;;;5035121;28;20544;-67
2021/05/28 13:41:18;;;;;;;5.28;1.60;;;;;;;;;;5037582;28;20181;-68
2021/05/28 13:43:44;;;;;;;2.95;2.15;;;;;;;;;;5042836;28;20558;-67
2021/05/28 13:46:10;;;;;;;2.65;1.70;;;;;;;;;;5037298;28;20205;-67
2021/05/28 13:48:38;;;;;;;2.22;1.30;;;;;;;;;;5033465;28;20204;-66
2021/05/28 13:51:05;;;;;;;3.25;1.58;;;;;;;;;;5041874;28;20225;-68
2021/05/28 13:53:31;;;;;;;1.70;1.33;;;;;;;;;;5036072;28;20555;-67
2021/05/28 13:55:57;;;;;;;1.98;1.27;;;;;;;;;;5037518;28;20186;-66
2021/05/28 13:58:24;;;;;;;2.15;1.23;;;;;;;;;;5039691;28;20276;-66
2021/05/28 14:00:50;;;;;;;3.28;1.40;;;;;;;;;;5033394;28;22332;-66
2021/05/28 14:03:16;;;;;;;2.95;1.60;;;;;;;;;;5042749;28;20181;-67
2021/05/28 14:05:41;;;;;;;2.65;1.27;;;;;;;;;;5036350;28;20287;-66
2021/05/28 14:08:07;;;;;;;1.80;1.58;;;;;;;;;;5037259;28;20225;-66
2021/05/28 14:10:33;;;;;;;2.28;1.77;;;;;;;;;;5038227;28;20244;-66
2021/05/28 14:12:58;;;;;;;2.83;1.38;;;;;;;;;;5044141;28;20188;-67
2021/05/28 14:15:25;;;;;;;2.60;1.40;;;;;;;;;;5033244;28;20194;-67
2021/05/28 14:17:51;;;;;;;3.85;1.77;;;;;;;;;;5047329;28;20188;-66
2021/05/28 14:20:21;;;;;;;3.28;1.48;;;;;;;;;;5040129;28;20656;-66
2021/05/28 14:22:47;;;;;;;1.92;1.35;;;;;;;;;;5040670;28;20626;-67
2021/05/28 14:25:12;;;;;;;2.75;1.10;;;;;;;;;;5039219;28;20213;-67
2021/05/28 14:27:37;;;;;;;3.47;1.40;;;;;;;;;;5040398;28;20268;-66
2021/05/28 14:30:05;;;;;;;1.80;1.58;;;;;;;;;;5042430;28;20189;-67
2021/05/28 14:32:31;;;;;;;2.35;1.38;;;;;;;;;;5036434;28;20243;-66